createdAt,value
2018-07-12T00:01:30.993Z,99029.23
2018-07-12T00:03:59.076Z,99034.58
2018-07-12T00:06:26.944Z,99037.84
2018-07-12T00:08:54.779Z,99030.05
2018-07-12T00:11:23.730Z,99035.33
2018-07-12T00:13:52.556Z,99039.72
2018-07-12T00:16:20.400Z,99044.52
2018-07-12T00:18:48.246Z,99044.11
2018-07-12T00:21:16.144Z,99046.94
2018-07-12T00:23:43.938Z,99051.05
2018-07-12T00:26:12.603Z,99046.75
2018-07-12T00:28:42.397Z,99043.07
2018-07-12T00:31:10.901Z,99041.88
2018-07-12T00:33:40.733Z,99044.66
2018-07-12T00:36:09.401Z,99047.13
2018-07-12T00:38:37.642Z,99044.81
2018-07-12T00:41:05.512Z,99045.22
2018-07-12T00:43:33.465Z,99037.59
2018-07-12T00:46:01.557Z,99041.00
2018-07-12T00:48:30.220Z,99038.41
2018-07-12T00:50:59.997Z,99037.05
2018-07-12T00:53:29.286Z,99041.19
2018-07-12T00:55:57.337Z,99040.40
2018-07-12T00:58:25.489Z,99045.59
2018-07-12T01:00:54.171Z,99049.41
2018-07-12T01:03:22.507Z,99055.45
2018-07-12T01:05:51.795Z,99055.80
2018-07-12T01:08:21.259Z,99052.76
2018-07-12T01:10:49.597Z,99049.82
2018-07-12T01:13:18.379Z,99064.20
2018-07-12T01:15:46.540Z,99055.44
2018-07-12T01:18:14.358Z,99060.97
2018-07-12T01:20:43.443Z,99066.94
2018-07-12T01:23:11.568Z,99063.02
2018-07-12T01:25:39.454Z,99055.98
2018-07-12T01:28:09.350Z,99052.58
2018-07-12T01:30:37.967Z,99066.52
2018-07-12T01:33:05.790Z,99061.11
2018-07-12T01:35:33.645Z,99052.96
2018-07-12T01:38:01.696Z,99059.85
2018-07-12T01:40:29.554Z,99064.84
2018-07-12T01:42:57.796Z,99065.16
2018-07-12T01:45:25.639Z,99068.69
2018-07-12T01:47:54.074Z,99064.33
2018-07-12T01:50:23.027Z,99057.02
2018-07-12T01:52:50.861Z,99059.72
2018-07-12T01:55:19.104Z,99064.08
2018-07-12T01:57:46.959Z,99057.64
2018-07-12T02:00:15.019Z,99062.28
2018-07-12T02:02:44.041Z,99058.91
2018-07-12T02:05:14.617Z,99059.91
2018-07-12T02:07:43.420Z,99060.05
2018-07-12T02:10:12.073Z,99062.05
2018-07-12T02:12:40.309Z,99062.54
2018-07-12T02:15:08.145Z,99055.16
2018-07-12T02:17:38.071Z,99052.64
2018-07-12T02:20:05.912Z,99057.77
2018-07-12T02:22:33.790Z,99062.34
2018-07-12T02:25:02.172Z,99064.92
2018-07-12T02:27:30.069Z,99062.67
2018-07-12T02:29:58.008Z,99074.81
2018-07-12T02:32:25.856Z,99074.68
2018-07-12T02:34:55.160Z,99072.09
2018-07-12T02:37:23.236Z,99066.75
2018-07-12T02:39:51.089Z,99062.83
2018-07-12T02:42:19.812Z,99061.42
2018-07-12T02:44:47.737Z,99050.67
2018-07-12T02:47:15.607Z,99060.56
2018-07-12T02:49:43.495Z,99060.97
2018-07-12T02:52:11.384Z,99066.66
2018-07-12T02:54:39.930Z,99069.19
2018-07-12T02:57:07.797Z,99078.43
2018-07-12T02:59:35.662Z,99084.97
2018-07-12T03:02:03.592Z,99084.91
2018-07-12T03:04:31.784Z,99081.14
2018-07-12T03:07:00.396Z,99081.64
2018-07-12T03:09:28.520Z,99079.67
2018-07-12T03:11:57.662Z,99072.77
2018-07-12T03:14:25.767Z,99072.50
2018-07-12T03:16:53.947Z,99073.13
2018-07-12T03:19:22.223Z,99074.38
2018-07-12T03:21:50.080Z,99073.61
2018-07-12T03:24:18.369Z,99072.23
2018-07-12T03:26:46.243Z,99072.16
2018-07-12T03:29:15.289Z,99077.76
2018-07-12T03:31:43.958Z,99081.64
2018-07-12T03:34:11.813Z,99078.75
2018-07-12T03:36:40.536Z,99083.23
2018-07-12T03:39:08.825Z,99084.20
2018-07-12T03:41:37.543Z,99095.31
2018-07-12T03:44:05.395Z,99086.55
2018-07-12T03:46:33.355Z,99096.28
2018-07-12T03:49:02.995Z,99094.28
2018-07-12T03:51:31.568Z,99092.94
2018-07-12T03:53:59.387Z,99092.45
2018-07-12T03:56:27.593Z,99097.65
2018-07-12T03:58:55.993Z,99102.01
2018-07-12T04:01:23.849Z,99100.92
2018-07-12T04:03:52.481Z,99101.02
2018-07-12T04:06:21.241Z,99110.00
2018-07-12T04:08:49.592Z,99115.34
2018-07-12T04:11:17.699Z,99113.11
2018-07-12T04:13:45.576Z,99120.48
2018-07-12T04:16:14.102Z,99116.23
2018-07-12T04:18:43.160Z,99114.72
2018-07-12T04:21:11.432Z,99119.41
2018-07-12T04:23:40.216Z,99125.39
2018-07-12T04:26:08.085Z,99123.86
2018-07-12T04:28:36.537Z,99121.74
2018-07-12T04:31:04.390Z,99114.94
2018-07-12T04:33:32.665Z,99120.45
2018-07-12T04:36:00.942Z,99115.00
2018-07-12T04:38:29.093Z,99122.64
2018-07-12T04:40:57.212Z,99121.09
2018-07-12T04:43:26.192Z,99116.55
2018-07-12T04:45:54.040Z,99112.52
2018-07-12T04:48:22.884Z,99118.70
2018-07-12T04:50:51.379Z,99110.16
2018-07-12T04:53:19.233Z,99102.70
2018-07-12T04:55:47.069Z,99101.62
2018-07-12T04:58:15.666Z,99097.20
2018-07-12T05:00:43.665Z,99100.88
2018-07-12T05:03:12.472Z,99113.03
2018-07-12T05:05:40.297Z,99111.40
2018-07-12T05:08:10.704Z,99117.72
2018-07-12T05:10:38.944Z,99121.52
2018-07-12T05:13:06.802Z,99123.17
2018-07-12T05:15:35.351Z,99125.74
2018-07-12T05:18:04.057Z,99128.47
2018-07-12T05:20:32.531Z,99127.00
2018-07-12T05:23:00.399Z,99132.12
2018-07-12T05:25:28.491Z,99133.08
2018-07-12T05:27:57.292Z,99134.03
2018-07-12T05:30:25.136Z,99132.26
2018-07-12T05:32:53.772Z,99125.84
2018-07-12T05:35:21.864Z,99132.25
2018-07-12T05:37:51.556Z,99133.07
2018-07-12T05:40:20.579Z,99133.07
2018-07-12T05:42:50.195Z,99126.92
2018-07-12T05:45:19.697Z,99125.16
2018-07-12T05:47:49.925Z,99136.52
2018-07-12T05:50:20.237Z,99134.69
2018-07-12T05:52:49.814Z,99135.21
2018-07-12T05:55:19.129Z,99138.52
2018-07-12T05:57:49.508Z,99138.88
2018-07-12T06:00:18.852Z,99138.41
2018-07-12T06:02:48.850Z,99140.30
2018-07-12T06:05:18.635Z,99147.49
2018-07-12T06:07:47.944Z,99154.67
2018-07-12T06:10:17.263Z,99157.53
2018-07-12T06:12:47.017Z,99165.53
2018-07-12T06:15:18.581Z,99168.61
2018-07-12T06:17:49.380Z,99171.08
2018-07-12T06:20:18.699Z,99167.97
2018-07-12T06:22:48.852Z,99176.41
2018-07-12T06:25:18.593Z,99178.20
2018-07-12T06:27:47.933Z,99180.81
2018-07-12T06:30:17.580Z,99179.68
2018-07-12T06:32:46.928Z,99182.07
2018-07-12T06:35:16.461Z,99185.03
2018-07-12T06:37:45.780Z,99190.81
2018-07-12T06:40:15.107Z,99186.58
2018-07-12T06:42:44.430Z,99193.63
2018-07-12T06:45:13.752Z,99188.81
2018-07-12T06:47:43.488Z,99190.93
2018-07-12T06:50:13.107Z,99194.97
2018-07-12T06:52:42.558Z,99195.31
2018-07-12T06:55:13.794Z,99201.37
2018-07-12T06:57:43.357Z,99210.73
2018-07-12T07:00:12.834Z,99210.33
2018-07-12T07:02:42.548Z,99211.17
2018-07-12T07:05:13.692Z,99204.52
2018-07-12T07:07:43.789Z,99203.50
2018-07-12T07:10:13.194Z,99207.05
2018-07-12T07:12:42.557Z,99207.33
2018-07-12T07:15:13.226Z,99208.58
2018-07-12T07:17:42.547Z,99209.11
2018-07-12T07:20:12.498Z,99205.02
2018-07-12T07:22:42.667Z,99204.89
2018-07-12T07:25:12.329Z,99200.41
2018-07-12T07:27:41.900Z,99196.75
2018-07-12T07:30:11.625Z,99198.55
2018-07-12T07:32:42.133Z,99204.47
2018-07-12T07:35:13.272Z,99202.33
2018-07-12T07:37:43.096Z,99204.25
2018-07-12T07:40:12.428Z,99212.59
2018-07-12T07:42:42.258Z,99211.28
2018-07-12T07:45:11.594Z,99209.27
2018-07-12T07:47:40.940Z,99211.09
2018-07-12T07:50:11.273Z,99215.87
2018-07-12T07:52:41.047Z,99216.84
2018-07-12T07:55:11.282Z,99211.30
2018-07-12T07:57:40.628Z,99218.20
2018-07-12T08:00:10.684Z,99223.03
2018-07-12T08:02:40.362Z,99221.05
2018-07-12T08:05:09.797Z,99226.02
2018-07-12T08:07:39.153Z,99217.81
2018-07-12T08:10:08.498Z,99222.98
2018-07-12T08:12:37.840Z,99221.24
2018-07-12T08:15:07.489Z,99221.46
2018-07-12T08:17:37.221Z,99228.45
2018-07-12T08:20:06.890Z,99233.89
2018-07-12T08:22:36.727Z,99232.73
2018-07-12T08:25:06.123Z,99228.91
2018-07-12T08:27:35.450Z,99233.27
2018-07-12T08:30:05.175Z,99231.05
2018-07-12T08:32:35.276Z,99230.30
2018-07-12T08:35:05.506Z,99232.13
2018-07-12T08:37:35.844Z,99242.41
2018-07-12T08:40:05.190Z,99227.73
2018-07-12T08:42:34.879Z,99236.53
2018-07-12T08:45:04.183Z,99230.77
2018-07-12T08:47:34.120Z,99232.04
2018-07-12T08:50:04.176Z,99231.37
2018-07-12T08:52:34.424Z,99221.61
2018-07-12T08:55:04.440Z,99229.57
2018-07-12T08:57:34.196Z,99231.03
2018-07-12T09:00:03.733Z,99229.82
2018-07-12T09:02:33.089Z,99225.56
2018-07-12T09:05:02.390Z,99233.33
2018-07-12T09:07:32.356Z,99225.50
2018-07-12T09:10:01.686Z,99223.14
2018-07-12T09:12:31.951Z,99223.73
2018-07-12T09:15:02.313Z,99224.30
2018-07-12T09:17:32.733Z,99220.75
2018-07-12T09:20:03.439Z,99219.42
2018-07-12T09:22:33.904Z,99224.27
2018-07-12T09:25:03.723Z,99225.64
2018-07-12T09:27:33.317Z,99224.30
2018-07-12T09:30:02.683Z,99225.17
2018-07-12T09:32:32.222Z,99225.44
2018-07-12T09:35:03.346Z,99221.36
2018-07-12T09:37:32.639Z,99225.52
2018-07-12T09:40:02.397Z,99228.47
2018-07-12T09:42:31.719Z,99230.37
2018-07-12T09:45:02.474Z,99232.41
2018-07-12T09:47:32.883Z,99230.90
2018-07-12T09:50:02.564Z,99232.03
2018-07-12T09:52:34.410Z,99238.27
2018-07-12T09:55:05.305Z,99233.77
2018-07-12T09:57:45.817Z,99227.00
2018-07-12T10:00:16.463Z,99232.14
2018-07-12T10:02:50.894Z,99222.99
2018-07-12T10:05:26.374Z,99222.84
2018-07-12T10:08:06.562Z,99221.44
2018-07-12T10:10:40.063Z,99224.31
2018-07-12T10:13:15.145Z,99217.74
2018-07-12T10:15:52.592Z,99223.92
2018-07-12T10:18:24.011Z,99223.84
2018-07-12T10:20:53.356Z,99232.91
2018-07-12T10:23:23.524Z,99234.54
2018-07-12T10:25:53.403Z,99234.34
2018-07-12T10:28:23.999Z,99238.73
2018-07-12T10:30:53.550Z,99239.11
2018-07-12T10:33:22.946Z,99233.77
2018-07-12T10:35:53.604Z,99232.66
2018-07-12T10:38:23.884Z,99235.25
2018-07-12T10:40:53.247Z,99234.91
2018-07-12T10:43:23.349Z,99231.25
2018-07-12T10:45:52.799Z,99228.27
2018-07-12T10:48:22.232Z,99228.63
2018-07-12T10:50:52.111Z,99235.41
2018-07-12T10:53:22.155Z,99229.81
2018-07-12T10:55:52.340Z,99229.41
2018-07-12T10:58:22.362Z,99222.16
2018-07-12T11:00:51.936Z,99224.95
2018-07-12T11:03:21.276Z,99225.29
2018-07-12T11:05:50.627Z,99222.92
2018-07-12T11:08:20.409Z,99217.77
2018-07-12T11:10:49.948Z,99215.93
2018-07-12T11:13:29.319Z,99217.64
2018-07-12T11:15:59.068Z,99215.83
2018-07-12T11:18:29.290Z,99214.77
2018-07-12T11:20:59.304Z,99219.36
2018-07-12T11:23:28.925Z,99220.00
2018-07-12T11:25:58.749Z,99214.92
2018-07-12T11:28:28.914Z,99217.49
2018-07-12T11:30:58.255Z,99206.15
2018-07-12T11:33:37.939Z,99201.33
2018-07-12T11:36:08.890Z,99212.66
2018-07-12T11:38:39.708Z,99209.95
2018-07-12T11:41:10.347Z,99209.25
2018-07-12T11:43:39.631Z,99209.30
2018-07-12T11:46:11.371Z,99212.62
2018-07-12T11:48:42.653Z,99209.07
2018-07-12T11:51:13.689Z,99217.70
2018-07-12T11:53:43.075Z,99210.36
2018-07-12T11:56:12.414Z,99204.46
2018-07-12T11:58:42.710Z,99201.72
2018-07-12T12:01:12.067Z,99203.78
2018-07-12T12:03:41.820Z,99203.11
2018-07-12T12:06:11.465Z,99203.53
2018-07-12T12:08:40.900Z,99209.72
2018-07-12T12:11:10.205Z,99211.61
2018-07-12T12:13:39.749Z,99207.98
2018-07-12T12:16:10.359Z,99210.74
2018-07-12T12:18:40.972Z,99209.98
2018-07-12T12:21:10.668Z,99211.20
2018-07-12T12:23:40.339Z,99203.45
2018-07-12T12:26:10.524Z,99200.80
2018-07-12T12:28:40.274Z,99195.45
2018-07-12T12:31:10.422Z,99191.85
2018-07-12T12:33:40.610Z,99186.37
2018-07-12T12:36:09.938Z,99188.56
2018-07-12T12:38:39.264Z,99187.62
2018-07-12T12:41:09.822Z,99195.48
2018-07-12T12:43:39.952Z,99190.80
2018-07-12T12:46:09.299Z,99188.41
2018-07-12T12:48:39.445Z,99188.26
2018-07-12T12:51:08.839Z,99191.95
2018-07-12T12:53:38.652Z,99191.60
2018-07-12T12:56:08.506Z,99191.53
2018-07-12T12:58:37.819Z,99187.45
2018-07-12T13:01:07.396Z,99181.78
2018-07-12T13:03:36.712Z,99182.58
2018-07-12T13:06:06.768Z,99175.82
2018-07-12T13:08:36.441Z,99184.48
2018-07-12T13:11:05.828Z,99173.05
2018-07-12T13:13:35.538Z,99174.23
2018-07-12T13:16:06.439Z,99168.17
2018-07-12T13:18:36.030Z,99168.81
2018-07-12T13:21:07.281Z,99166.39
2018-07-12T13:23:36.614Z,99159.81
2018-07-12T13:26:06.950Z,99154.45
2018-07-12T13:28:36.344Z,99161.73
2018-07-12T13:31:05.726Z,99166.50
2018-07-12T13:33:35.497Z,99165.47
2018-07-12T13:36:05.349Z,99164.70
2018-07-12T13:38:35.744Z,99158.09
2018-07-12T13:41:05.433Z,99156.16
2018-07-12T13:43:34.883Z,99153.31
2018-07-12T13:46:04.267Z,99155.10
2018-07-12T13:48:35.615Z,99157.95
2018-07-12T13:51:05.700Z,99155.19
2018-07-12T13:53:35.024Z,99156.55
2018-07-12T13:56:04.347Z,99153.09
2018-07-12T13:58:34.011Z,99147.13
2018-07-12T14:01:03.360Z,99144.48
2018-07-12T14:03:33.161Z,99136.76
2018-07-12T14:06:02.987Z,99139.16
2018-07-12T14:08:32.428Z,99135.14
2018-07-12T14:11:02.183Z,99129.81
2018-07-12T14:13:31.493Z,99134.84
2018-07-12T14:16:01.549Z,99134.79
2018-07-12T14:18:33.486Z,99134.33
2018-07-12T14:21:03.080Z,99130.66
2018-07-12T14:23:32.869Z,99128.27
2018-07-12T14:26:03.100Z,99131.84
2018-07-12T14:28:32.887Z,99136.08
2018-07-12T14:31:02.680Z,99130.77
2018-07-12T14:33:33.134Z,99124.36
2018-07-12T14:36:03.612Z,99123.80
2018-07-12T14:38:33.944Z,99122.63
2018-07-12T14:41:04.131Z,99117.44
2018-07-12T14:43:34.313Z,99117.13
2018-07-12T14:46:03.949Z,99118.44
2018-07-12T14:48:33.708Z,99118.32
2018-07-12T14:51:03.074Z,99121.96
2018-07-12T14:53:32.720Z,99119.75
2018-07-12T14:56:06.964Z,99121.16
2018-07-12T14:58:36.300Z,99116.09
2018-07-12T15:01:05.971Z,99118.75
2018-07-12T15:03:35.324Z,99122.50
2018-07-12T15:06:05.971Z,99116.16
2018-07-12T15:08:36.274Z,99107.33
2018-07-12T15:11:05.631Z,99111.03
2018-07-12T15:13:34.991Z,99112.57
2018-07-12T15:16:05.307Z,99117.31
2018-07-12T15:18:35.143Z,99103.22
2018-07-12T15:21:04.967Z,99110.59
2018-07-12T15:23:37.735Z,99109.06
2018-07-12T15:26:07.512Z,99108.05
2018-07-12T15:28:37.136Z,99111.70
2018-07-12T15:31:06.843Z,99113.23
2018-07-12T15:33:36.946Z,99104.62
2018-07-12T15:36:07.162Z,99101.77
2018-07-12T15:38:36.842Z,99103.05
2018-07-12T15:41:06.341Z,99102.97
2018-07-12T15:43:35.690Z,99099.78
2018-07-12T15:46:05.076Z,99100.63
2018-07-12T15:48:34.561Z,99105.07
2018-07-12T15:51:04.380Z,99100.83
2018-07-12T15:53:34.078Z,99105.42
2018-07-12T15:56:03.798Z,99097.70
2018-07-12T15:58:35.292Z,99095.58
2018-07-12T16:01:05.126Z,99096.55
2018-07-12T16:03:36.300Z,99093.63
2018-07-12T16:06:05.620Z,99091.70
2018-07-12T16:08:35.102Z,99096.60
2018-07-12T16:11:04.803Z,99094.33
2018-07-12T16:13:34.519Z,99099.65
2018-07-12T16:16:03.909Z,99087.86
2018-07-12T16:18:33.536Z,99090.92
2018-07-12T16:21:03.785Z,99093.41
2018-07-12T16:23:33.131Z,99095.93
2018-07-12T16:26:02.844Z,99096.09
2018-07-12T16:28:33.089Z,99091.34
2018-07-12T16:31:03.008Z,99093.70
2018-07-12T16:33:32.562Z,99096.94
2018-07-12T16:36:03.236Z,99092.42
2018-07-12T16:38:33.365Z,99095.67
2018-07-12T16:41:02.744Z,99095.39
2018-07-12T16:43:32.640Z,99089.73
2018-07-12T16:46:03.723Z,99090.59
2018-07-12T16:48:33.123Z,99099.86
2018-07-12T16:51:03.646Z,99092.95
2018-07-12T16:53:35.325Z,99085.83
2018-07-12T16:56:05.761Z,99082.18
2018-07-12T16:58:35.861Z,99085.13
2018-07-12T17:01:05.198Z,99089.19
2018-07-12T17:03:34.771Z,99090.44
2018-07-12T17:06:05.153Z,99097.94
2018-07-12T17:08:34.738Z,99099.81
2018-07-12T17:11:05.069Z,99105.83
2018-07-12T17:13:35.439Z,99122.14
2018-07-12T17:16:05.339Z,99131.48
2018-07-12T17:18:34.691Z,99145.53
2018-07-12T17:21:05.195Z,99152.41
2018-07-12T17:23:34.555Z,99172.05
2018-07-12T17:26:04.298Z,99191.83
2018-07-12T17:28:33.638Z,99198.34
2018-07-12T17:31:03.510Z,99203.09
2018-07-12T17:33:34.624Z,99216.23
2018-07-12T17:36:04.292Z,99222.63
2018-07-12T17:38:34.435Z,99232.95
2018-07-12T17:41:04.049Z,99227.37
2018-07-12T17:43:33.366Z,99229.59
2018-07-12T17:46:03.849Z,99224.73
2018-07-12T17:48:33.924Z,99233.16
2018-07-12T17:51:04.312Z,99238.95
2018-07-12T17:53:34.594Z,99245.20
2018-07-12T17:56:03.924Z,99243.84
2018-07-12T17:58:33.710Z,99242.69
2018-07-12T18:01:03.801Z,99245.14
2018-07-12T18:03:33.208Z,99243.90
2018-07-12T18:06:03.329Z,99247.44
2018-07-12T18:08:32.658Z,99248.44
2018-07-12T18:11:02.762Z,99242.64
2018-07-12T18:13:32.473Z,99239.41
2018-07-12T18:16:01.777Z,99242.44
2018-07-12T18:18:31.494Z,99243.47
2018-07-12T18:21:01.077Z,99243.08
2018-07-12T18:23:30.825Z,99240.22
2018-07-12T18:26:00.157Z,99237.06
2018-07-12T18:28:29.971Z,99233.92
2018-07-12T18:31:00.310Z,99232.78
2018-07-12T18:33:29.861Z,99233.80
2018-07-12T18:35:59.396Z,99238.27
2018-07-12T18:38:30.504Z,99239.89
2018-07-12T18:41:00.051Z,99233.73
2018-07-12T18:43:29.428Z,99233.20
2018-07-12T18:45:59.367Z,99235.17
2018-07-12T18:48:28.723Z,99229.25
2018-07-12T18:50:58.849Z,99233.16
2018-07-12T18:53:28.203Z,99232.11
2018-07-12T18:55:58.647Z,99233.16
2018-07-12T18:58:31.160Z,99236.08
2018-07-12T19:01:02.903Z,99232.38
2018-07-12T19:03:33.500Z,99234.70
2018-07-12T19:06:02.815Z,99238.02
2018-07-12T19:08:33.421Z,99238.73
2018-07-12T19:11:03.552Z,99240.00
2018-07-12T19:13:33.245Z,99235.70
2018-07-12T19:16:02.666Z,99240.72
2018-07-12T19:18:32.285Z,99245.98
2018-07-12T19:21:02.528Z,99246.37
2018-07-12T19:23:33.175Z,99247.44
2018-07-12T19:26:03.377Z,99247.45
2018-07-12T19:28:33.617Z,99254.50
2018-07-12T19:31:03.772Z,99248.66
2018-07-12T19:33:33.181Z,99250.59
2018-07-12T19:36:02.956Z,99244.00
2018-07-12T19:38:33.040Z,99249.08
2018-07-12T19:41:02.388Z,99251.44
2018-07-12T19:43:32.263Z,99249.08
2018-07-12T19:46:02.063Z,99252.95
2018-07-12T19:48:32.063Z,99247.86
2018-07-12T19:51:02.921Z,99258.80
2018-07-12T19:53:33.236Z,99266.88
2018-07-12T19:56:02.564Z,99260.41
2018-07-12T19:58:33.609Z,99264.22
2018-07-12T20:01:04.257Z,99265.17
2018-07-12T20:03:33.934Z,99265.88
2018-07-12T20:06:04.696Z,99273.52
2018-07-12T20:08:34.064Z,99271.95
2018-07-12T20:11:04.330Z,99269.89
2018-07-12T20:13:34.717Z,99275.19
2018-07-12T20:16:04.339Z,99277.36
2018-07-12T20:18:33.721Z,99275.94
2018-07-12T20:21:04.678Z,99278.01
2018-07-12T20:23:35.884Z,99275.08
2018-07-12T20:26:06.127Z,99276.88
2018-07-12T20:28:35.457Z,99277.80
2018-07-12T20:31:05.215Z,99278.89
2018-07-12T20:33:34.994Z,99283.46
2018-07-12T20:36:04.365Z,99280.75
2018-07-12T20:38:33.734Z,99283.03
2018-07-12T20:41:04.061Z,99289.64
2018-07-12T20:43:38.021Z,99286.11
2018-07-12T20:46:07.342Z,99296.03
2018-07-12T20:48:36.673Z,99295.30
2018-07-12T20:51:06.600Z,99293.38
2018-07-12T20:53:37.220Z,99295.44
2018-07-12T20:56:09.047Z,99300.94
2018-07-12T20:58:39.024Z,99307.55
2018-07-12T21:01:08.323Z,99307.48
2018-07-12T21:03:38.344Z,99301.91
2018-07-12T21:06:09.032Z,99300.40
2018-07-12T21:08:39.416Z,99306.98
2018-07-12T21:11:09.643Z,99307.91
2018-07-12T21:13:40.195Z,99304.66
2018-07-12T21:16:09.544Z,99310.03
2018-07-12T21:18:39.253Z,99307.22
2018-07-12T21:21:10.037Z,99312.31
2018-07-12T21:23:39.826Z,99321.91
2018-07-12T21:26:09.556Z,99320.14
2018-07-12T21:28:39.147Z,99319.39
2018-07-12T21:31:08.890Z,99322.51
2018-07-12T21:33:39.026Z,99318.19
2018-07-12T21:36:08.972Z,99318.84
2018-07-12T21:38:39.013Z,99322.58
2018-07-12T21:41:08.906Z,99312.72
2018-07-12T21:43:39.838Z,99318.95
2018-07-12T21:46:11.063Z,99313.77
2018-07-12T21:48:40.381Z,99322.62
2018-07-12T21:51:10.528Z,99315.42
2018-07-12T21:53:40.757Z,99316.67
2018-07-12T21:56:10.090Z,99319.36
2018-07-12T21:58:39.480Z,99313.99
2018-07-12T22:01:08.823Z,99312.55
2018-07-12T22:03:38.132Z,99320.19
2018-07-12T22:06:08.052Z,99316.77
2018-07-12T22:08:37.822Z,99321.95
2018-07-12T22:11:07.506Z,99323.72
2018-07-12T22:13:38.036Z,99323.87
2018-07-12T22:16:08.271Z,99325.34
2018-07-12T22:18:39.225Z,99321.14
2018-07-12T22:21:09.384Z,99322.41
2018-07-12T22:23:38.828Z,99332.00
2018-07-12T22:26:08.893Z,99325.98
2018-07-12T22:28:38.546Z,99325.63
2018-07-12T22:31:08.853Z,99324.98
2018-07-12T22:33:39.305Z,99322.91
2018-07-12T22:36:08.629Z,99328.58
2018-07-12T22:38:38.843Z,99338.41
2018-07-12T22:41:08.188Z,99329.81
2018-07-12T22:43:37.534Z,99330.40
2018-07-12T22:46:07.110Z,99325.48
2018-07-12T22:48:36.880Z,99332.88
2018-07-12T22:51:08.005Z,99331.25
2018-07-12T22:53:37.320Z,99326.89
2018-07-12T22:56:06.736Z,99325.84
2018-07-12T22:58:38.005Z,99327.74
2018-07-12T23:01:07.335Z,99324.56
2018-07-12T23:03:37.004Z,99322.98
2018-07-12T23:06:06.870Z,99321.38
2018-07-12T23:08:36.182Z,99322.19
2018-07-12T23:11:05.675Z,99327.73
2018-07-12T23:13:36.030Z,99325.70
2018-07-12T23:16:06.618Z,99322.53
2018-07-12T23:18:37.726Z,99326.15
2018-07-12T23:21:08.913Z,99320.54
2018-07-12T23:23:39.425Z,99322.13
2018-07-12T23:26:10.234Z,99323.47
2018-07-12T23:28:44.891Z,99317.46
2018-07-12T23:31:14.625Z,99319.00
2018-07-12T23:33:45.532Z,99318.06
2018-07-12T23:36:15.171Z,99318.78
2018-07-12T23:38:44.548Z,99320.50
2018-07-12T23:41:15.568Z,99314.26
2018-07-12T23:43:45.998Z,99315.16
2018-07-12T23:46:15.334Z,99317.55
2018-07-12T23:48:45.706Z,99317.05
2018-07-12T23:51:15.414Z,99319.59
2018-07-12T23:53:44.958Z,99316.95
2018-07-12T23:56:15.183Z,99322.03
2018-07-12T23:58:44.827Z,99323.97
